This is the latest recevied weather packets stored in our database for station/object WA6ODQ-13. If no packets are shown the sender has not sent any weather packets the latest 10 day(s).
| Time | Temp. | Humidity | Pressure | Rain* | Wind** | Luminosity | Snow |
|---|---|---|---|---|---|---|---|
| 1777306125 | 13.89° C | 83% | 1015 hPa | 0 mm | - | 132 W/m² | - |
| 1777304296 | 13.33° C | 86% | 1014.9 hPa | 0 mm | - | 128 W/m² | - |
| 1777303993 | 12.78° C | 86% | 1014.8 hPa | 0 mm | - | 112 W/m² | - |
| 1777302480 | 12.22° C | 88% | 1014.8 hPa | 0 mm | - | 74 W/m² | - |
| 1777301875 | 12.22° C | 89% | 1014.8 hPa | 0 mm | - | 81 W/m² | - |
| 1777300658 | 11.11° C | 89% | 1014.4 hPa | 0 mm | - | 53 W/m² | - |
| 1777300355 | 11.11° C | 90% | 1014.6 hPa | 0 mm | - | 58 W/m² | - |
| 1777300052 | 11.11° C | 91% | 1014.6 hPa | 0 mm | - | 52 W/m² | - |
| 1777299749 | 11.11° C | 90% | 1014.5 hPa | 0 mm | - | 42 W/m² | - |
| 1777299446 | 10.56° C | 91% | 1014.3 hPa | 0 mm | - | 32 W/m² | - |
| 1777299144 | 10.56° C | 91% | 1014.4 hPa | 0 mm | - | 26 W/m² | - |
| 1777296716 | 10.56° C | 90% | 1013.8 hPa | 0 mm | - | 5 W/m² | - |
| 1777295800 | 10° C | 90% | 1013.6 hPa | 0 mm | - | 1 W/m² | - |
| 1777295498 | 10° C | 90% | 1013.4 hPa | 0 mm | - | 1 W/m² | - |
| 1777295195 | 10° C | 90% | 1013.4 hPa | 0 mm | - | 0 W/m² | - |
| 1777294892 | 10° C | 90% | 1013.4 hPa | 0 mm | - | 0 W/m² | - |
| 1777294587 | 10° C | 90% | 1013.4 hPa | 0 mm | - | 0 W/m² | - |
| 1777294284 | 10° C | 89% | 1013.5 hPa | 0 mm | - | 0 W/m² | - |
| 1777293677 | 10° C | 89% | 1013.3 hPa | 0 mm | - | 0 W/m² | - |
| 1777293372 | 10° C | 89% | 1013.3 hPa | 0 mm | - | 0 W/m² | - |
| 1777293068 | 10° C | 89% | 1013.4 hPa | 0 mm | - | 0 W/m² | - |
| 1777292767 | 10° C | 89% | 1013.3 hPa | 0 mm | - | 0 W/m² | - |
| 1777292463 | 10° C | 89% | 1013.3 hPa | 0 mm | - | 0 W/m² | - |
| 1777292160 | 10° C | 89% | 1013.4 hPa | 0 mm | - | 0 W/m² | - |
| 1777291856 | 10° C | 89% | 1013.3 hPa | 0 mm | - | 0 W/m² | - |
* Rain latest hour (hover to see other rain measurements)
** Current wind speed in m/s (hover to see current wind gust speed)